Time;durP1;ratioP1;P1;durP2;ratioP2;P2;SDS_P1;SDS_P2;PMS_P1;PMS_P2;Temp;Humidity;BMP_temperature;BMP_pressure;BME280_temperature;BME280_humidity;BME280_pressure;Samples;Min_cycle;Max_cycle;Signal;HPM_P1;HPM_P2
2022/04/17 00:01:03;;;;;;;;;;;7.90;97.70;;;;;;5030749;28;19929;-77
2022/04/17 00:03:30;;;;;;;;;;;7.90;97.90;;;;;;5030530;28;19925;-77
2022/04/17 00:05:56;;;;;;;;;;;7.80;98.20;;;;;;5030026;28;19932;-77
2022/04/17 00:08:25;;;;;;;;;;;7.70;98.60;;;;;;5030903;28;19980;-77
2022/04/17 00:10:52;;;;;;;;;;;7.70;98.70;;;;;;5029930;28;19926;-77
2022/04/17 00:13:20;;;;;;;;;;;7.60;98.90;;;;;;5030324;28;19925;-77
2022/04/17 00:15:47;;;;;;;;;;;7.50;98.90;;;;;;5030061;28;19932;-77
2022/04/17 00:18:15;;;;;;;;;;;7.50;99.20;;;;;;5029927;28;19933;-77
2022/04/17 00:20:42;;;;;;;;;;;7.50;99.60;;;;;;5029534;28;19948;-77
2022/04/17 00:23:09;;;;;;;;;;;7.40;99.90;;;;;;5029617;28;19931;-77
2022/04/17 00:25:37;;;;;;;;;;;7.40;99.90;;;;;;5029663;28;20396;-77
2022/04/17 00:28:05;;;;;;;;;;;7.40;99.90;;;;;;5029878;28;19925;-77
2022/04/17 00:30:32;;;;;;;;;;;7.40;99.90;;;;;;5029997;28;19933;-77
2022/04/17 00:32:59;;;;;;;;;;;7.40;99.90;;;;;;5029697;28;19971;-77
2022/04/17 00:35:26;;;;;;;;;;;7.40;99.90;;;;;;5029828;28;19965;-77
2022/04/17 00:37:53;;;;;;;;;;;7.40;99.90;;;;;;5029570;28;20372;-77
2022/04/17 00:40:20;;;;;;;;;;;7.40;99.90;;;;;;5029764;28;19932;-77
2022/04/17 00:42:48;;;;;;;;;;;7.40;99.90;;;;;;5029715;28;19925;-77
2022/04/17 00:45:15;;;;;;;;;;;7.50;99.90;;;;;;5029904;28;19978;-77
2022/04/17 00:47:42;;;;;;;;;;;7.50;99.90;;;;;;5029944;28;19925;-77
2022/04/17 00:50:09;;;;;;;;;;;7.50;99.90;;;;;;5029821;28;20340;-77
2022/04/17 00:52:37;;;;;;;;;;;7.60;99.90;;;;;;5033843;28;19932;-76
2022/04/17 00:55:05;;;;;;;;;;;7.60;99.90;;;;;;5032241;28;19940;-76
2022/04/17 00:57:32;;;;;;;;;;;7.60;99.90;;;;;;5029801;28;19968;-77
2022/04/17 01:00:01;;;;;;;;;;;7.60;99.90;;;;;;5029002;28;19925;-76
2022/04/17 01:02:27;;;;;;;;;;;7.60;99.90;;;;;;5029363;28;19936;-76
2022/04/17 01:04:54;;;;;;;;;;;7.60;99.90;;;;;;5028233;28;19929;-76
2022/04/17 01:07:22;;;;;;;;;;;7.60;99.90;;;;;;5028488;28;19964;-76
2022/04/17 01:09:50;;;;;;;;;;;7.60;99.90;;;;;;5028901;28;19929;-76
2022/04/17 01:12:18;;;;;;;;;;;7.50;99.90;;;;;;5029260;28;19925;-76
2022/04/17 01:14:44;;;;;;;;;;;7.50;99.90;;;;;;5029208;28;19925;-77
2022/04/17 01:17:13;;;;;;;;;;;7.50;99.90;;;;;;5031057;28;19936;-76
2022/04/17 01:19:40;;;;;;;;;;;7.40;99.90;;;;;;5033115;28;20372;-77
2022/04/17 01:22:10;;;;;;;;;;;7.40;99.90;;;;;;5033382;28;19925;-77
2022/04/17 01:27:22;;;;;;;;;;;7.30;99.90;;;;;;5033097;28;19924;-77
2022/04/17 01:29:50;;;;;;;;;;;7.20;99.90;;;;;;5033346;28;19956;-77
2022/04/17 01:32:17;;;;;;;;;;;7.20;99.90;;;;;;5033207;28;19925;-77
2022/04/17 01:34:44;;;;;;;;;;;7.10;99.90;;;;;;5032393;28;19998;-76
2022/04/17 01:37:13;;;;;;;;;;;7.10;99.90;;;;;;5033117;28;20363;-77
2022/04/17 01:39:40;;;;;;;;;;;7.10;99.90;;;;;;5032345;28;19929;-77
2022/04/17 01:42:07;;;;;;;;;;;7.00;99.90;;;;;;5032728;28;19929;-76
2022/04/17 01:44:34;;;;;;;;;;;7.00;99.90;;;;;;5032670;28;19987;-77
2022/04/17 01:47:02;;;;;;;;;;;7.00;99.90;;;;;;5033200;28;19925;-76
2022/04/17 01:49:28;;;;;;;;;;;6.90;99.90;;;;;;5032604;28;19932;-77
2022/04/17 01:51:55;;;;;;;;;;;6.90;99.90;;;;;;5032561;28;20396;-77
2022/04/17 01:54:25;;;;;;;;;;;6.90;99.90;;;;;;5032261;28;19929;-76
2022/04/17 01:56:52;;;;;;;;;;;6.80;99.90;;;;;;5032658;28;19932;-77
2022/04/17 01:59:20;;;;;;;;;;;6.80;99.90;;;;;;5032540;28;19925;-77
2022/04/17 02:01:48;;;;;;;;;;;6.80;99.90;;;;;;5032679;28;20306;-76
2022/04/17 02:04:15;;;;;;;;;;;6.80;99.90;;;;;;5032029;28;19925;-76
2022/04/17 02:06:42;;;;;;;;;;;6.80;99.90;;;;;;5032430;28;20001;-77
2022/04/17 02:09:11;;;;;;;;;;;6.70;99.90;;;;;;5032193;28;19928;-77
2022/04/17 02:11:40;;;;;;;;;;;6.70;99.90;;;;;;5032639;28;19959;-77
2022/04/17 02:14:07;;;;;;;;;;;6.70;99.90;;;;;;5031854;28;19925;-77
2022/04/17 02:16:34;;;;;;;;;;;6.70;99.90;;;;;;5032187;28;19929;-77
2022/04/17 02:19:02;;;;;;;;;;;6.70;99.90;;;;;;5031890;28;19932;-77
2022/04/17 02:21:29;;;;;;;;;;;6.60;99.90;;;;;;5032475;28;19929;-76
2022/04/17 02:23:56;;;;;;;;;;;6.60;99.90;;;;;;5076539;23;19947;-71
2022/04/17 02:26:22;;;;;;;;;;;6.60;99.90;;;;;;5082571;28;19932;-71
2022/04/17 02:28:50;;;;;;;;;;;6.60;99.90;;;;;;5091178;28;20015;-71
2022/04/17 02:31:17;;;;;;;;;;;6.60;99.90;;;;;;5091915;28;20016;-71
2022/04/17 02:33:44;;;;;;;;;;;6.60;99.90;;;;;;5091571;28;19932;-72
2022/04/17 02:36:11;;;;;;;;;;;6.50;99.90;;;;;;5093379;28;19977;-71
2022/04/17 02:38:37;;;;;;;;;;;6.50;99.90;;;;;;5091988;28;19924;-70
2022/04/17 02:41:04;;;;;;;;;;;6.50;99.90;;;;;;5091722;28;20415;-70
2022/04/17 02:43:31;;;;;;;;;;;6.50;99.90;;;;;;5091569;28;19931;-71
2022/04/17 02:45:59;;;;;;;;;;;6.40;99.90;;;;;;5091611;28;19928;-71
2022/04/17 02:48:25;;;;;;;;;;;6.40;99.90;;;;;;5091537;28;19981;-71
2022/04/17 02:50:52;;;;;;;;;;;6.40;99.90;;;;;;5091123;28;19920;-71
2022/04/17 02:53:20;;;;;;;;;;;6.40;99.90;;;;;;5091527;28;20303;-71
2022/04/17 02:55:47;;;;;;;;;;;6.30;99.90;;;;;;5091308;28;20024;-71
2022/04/17 02:58:14;;;;;;;;;;;6.30;99.90;;;;;;5091536;28;19924;-72
2022/04/17 03:06:09;;;;;;;;;;;6.30;99.90;;;;;;5090964;28;19924;-71
2022/04/17 03:08:35;;;;;;;;;;;6.30;99.90;;;;;;5089906;28;19928;-71
2022/04/17 03:11:02;;;;;;;;;;;6.30;99.90;;;;;;5089657;28;19951;-70
2022/04/17 03:13:29;;;;;;;;;;;6.30;99.90;;;;;;5090952;28;19928;-71
2022/04/17 03:15:56;;;;;;;;;;;6.30;99.90;;;;;;5091018;28;19936;-71
2022/04/17 03:18:24;;;;;;;;;;;6.30;99.90;;;;;;5091277;28;19924;-71
2022/04/17 03:20:51;;;;;;;;;;;6.30;99.90;;;;;;5090689;28;19924;-72
2022/04/17 03:23:18;;;;;;;;;;;6.30;99.90;;;;;;5090897;28;19924;-71
2022/04/17 03:25:44;;;;;;;;;;;6.30;99.90;;;;;;5090522;28;20330;-71
2022/04/17 03:28:11;;;;;;;;;;;6.20;99.90;;;;;;5090748;28;19964;-71
2022/04/17 03:30:38;;;;;;;;;;;6.20;99.90;;;;;;5090778;28;19931;-71
2022/04/17 03:33:05;;;;;;;;;;;6.10;99.90;;;;;;5090785;28;19957;-71
2022/04/17 03:35:34;;;;;;;;;;;6.10;99.90;;;;;;5090652;28;20455;-71
2022/04/17 03:38:02;;;;;;;;;;;6.10;99.90;;;;;;5090902;28;19924;-71
2022/04/17 03:40:29;;;;;;;;;;;6.00;99.90;;;;;;5089375;28;19971;-70
2022/04/17 03:42:58;;;;;;;;;;;6.00;99.90;;;;;;5090583;28;20350;-71
2022/04/17 03:45:24;;;;;;;;;;;5.90;99.90;;;;;;5090536;28;20395;-71
2022/04/17 03:47:51;;;;;;;;;;;5.80;99.90;;;;;;5090674;28;19924;-71
2022/04/17 03:50:18;;;;;;;;;;;5.80;99.90;;;;;;5090408;28;20311;-71
2022/04/17 03:52:47;;;;;;;;;;;5.80;99.90;;;;;;5090530;28;19928;-71
2022/04/17 03:55:14;;;;;;;;;;;5.70;99.90;;;;;;5090412;28;19932;-71
2022/04/17 03:57:41;;;;;;;;;;;5.70;99.90;;;;;;5090516;28;20311;-71
2022/04/17 04:00:10;;;;;;;;;;;5.60;99.90;;;;;;5090347;28;20033;-70
2022/04/17 04:02:39;;;;;;;;;;;5.60;99.90;;;;;;5090507;28;19931;-71
2022/04/17 04:05:08;;;;;;;;;;;5.60;99.90;;;;;;5090233;28;19924;-71
2022/04/17 04:07:34;;;;;;;;;;;5.60;99.90;;;;;;5090342;28;20403;-71
2022/04/17 04:10:03;;;;;;;;;;;5.50;99.90;;;;;;5088928;28;19960;-71
2022/04/17 04:12:30;;;;;;;;;;;5.50;99.90;;;;;;5090057;28;19924;-71
2022/04/17 04:14:57;;;;;;;;;;;5.50;99.90;;;;;;5089729;28;20424;-71
2022/04/17 04:17:24;;;;;;;;;;;5.50;99.90;;;;;;5090034;28;20395;-71
2022/04/17 04:19:51;;;;;;;;;;;5.50;99.90;;;;;;5089678;28;19974;-71
2022/04/17 04:22:17;;;;;;;;;;;5.40;99.90;;;;;;5090092;28;19998;-71
2022/04/17 04:24:44;;;;;;;;;;;5.50;99.90;;;;;;5087305;28;19967;-71
2022/04/17 04:29:53;;;;;;;;;;;5.40;99.90;;;;;;5027457;28;19925;-71
2022/04/17 04:32:21;;;;;;;;;;;5.30;99.90;;;;;;5050237;28;19924;-71
2022/04/17 04:34:48;;;;;;;;;;;5.30;99.90;;;;;;5049674;28;19925;-71
2022/04/17 04:37:15;;;;;;;;;;;5.30;99.90;;;;;;5053998;28;19975;-72
2022/04/17 04:39:41;;;;;;;;;;;5.30;99.90;;;;;;5063082;28;19929;-71
2022/04/17 04:42:08;;;;;;;;;;;5.30;99.90;;;;;;5066578;28;19925;-71
2022/04/17 04:44:36;;;;;;;;;;;5.30;99.90;;;;;;5069530;28;19925;-70
2022/04/17 04:47:02;;;;;;;;;;;5.30;99.90;;;;;;5069858;28;19924;-71
2022/04/17 04:49:32;;;;;;;;;;;5.20;99.90;;;;;;5069698;28;20019;-71
2022/04/17 04:52:00;;;;;;;;;;;5.20;99.90;;;;;;5071204;28;20375;-71
2022/04/17 04:54:27;;;;;;;;;;;5.20;99.90;;;;;;5073476;28;19932;-71
2022/04/17 04:56:54;;;;;;;;;;;5.20;99.90;;;;;;5073648;28;19931;-70
2022/04/17 04:59:21;;;;;;;;;;;5.30;99.90;;;;;;5073465;28;20349;-72
2022/04/17 05:01:50;;;;;;;;;;;5.30;99.90;;;;;;5068647;28;19929;-71
2022/04/17 05:04:17;;;;;;;;;;;5.30;99.90;;;;;;5066446;28;19928;-71
2022/04/17 05:06:44;;;;;;;;;;;5.30;99.90;;;;;;5067622;28;19924;-71
2022/04/17 05:09:11;;;;;;;;;;;5.30;99.90;;;;;;5073853;28;20463;-72
2022/04/17 05:11:38;;;;;;;;;;;5.20;99.90;;;;;;5073572;28;19924;-71
2022/04/17 05:14:06;;;;;;;;;;;5.30;99.90;;;;;;5073718;28;19924;-74
2022/04/17 05:16:33;;;;;;;;;;;5.30;99.90;;;;;;5072393;28;19924;-73
2022/04/17 05:19:20;;;;;;;;;;;5.30;99.90;;;;;;5059950;28;19985;-73
2022/04/17 05:21:48;;;;;;;;;;;5.30;99.90;;;;;;5072544;28;20031;-73
2022/04/17 05:24:15;;;;;;;;;;;5.30;99.90;;;;;;5073796;28;19928;-73
2022/04/17 05:26:41;;;;;;;;;;;5.40;99.90;;;;;;5074253;28;19925;-73
2022/04/17 05:29:08;;;;;;;;;;;5.40;99.90;;;;;;5073991;28;19952;-73
2022/04/17 05:31:35;;;;;;;;;;;5.50;99.90;;;;;;5073826;28;20311;-71
2022/04/17 05:34:03;;;;;;;;;;;5.50;99.90;;;;;;5073642;28;19924;-71
2022/04/17 05:36:30;;;;;;;;;;;5.50;99.90;;;;;;5072280;28;19925;-71
2022/04/17 05:38:57;;;;;;;;;;;5.60;99.90;;;;;;5058257;28;20396;-70
2022/04/17 05:41:24;;;;;;;;;;;5.60;99.90;;;;;;5053549;28;19924;-71
2022/04/17 05:43:51;;;;;;;;;;;5.70;99.90;;;;;;5053442;28;19978;-71
2022/04/17 05:46:19;;;;;;;;;;;5.70;99.90;;;;;;5053638;28;19929;-70
2022/04/17 05:48:46;;;;;;;;;;;5.80;99.90;;;;;;5053571;28;19986;-71
2022/04/17 05:51:14;;;;;;;;;;;5.90;99.90;;;;;;5053561;28;19924;-72
2022/04/17 05:53:41;;;;;;;;;;;5.90;99.90;;;;;;5053182;28;19932;-71
2022/04/17 05:56:08;;;;;;;;;;;6.00;99.90;;;;;;5053489;28;19932;-72
2022/04/17 05:58:35;;;;;;;;;;;6.00;99.90;;;;;;5053349;28;19928;-73
2022/04/17 06:01:03;;;;;;;;;;;6.00;99.90;;;;;;5053010;28;19925;-73
2022/04/17 06:03:29;;;;;;;;;;;6.10;99.90;;;;;;5052060;28;19932;-72
2022/04/17 06:05:56;;;;;;;;;;;6.20;99.90;;;;;;5053542;28;19924;-73
2022/04/17 06:08:24;;;;;;;;;;;6.20;99.90;;;;;;5053070;28;20396;-73
2022/04/17 06:10:51;;;;;;;;;;;6.30;99.90;;;;;;5052995;28;19925;-73
2022/04/17 06:13:18;;;;;;;;;;;6.30;99.90;;;;;;5053486;28;19956;-73
2022/04/17 06:15:45;;;;;;;;;;;6.40;99.90;;;;;;5052927;28;19951;-71
2022/04/17 06:18:12;;;;;;;;;;;6.40;99.90;;;;;;5052467;28;19925;-72
2022/04/17 06:20:39;;;;;;;;;;;6.50;99.90;;;;;;5052783;28;19925;-72
2022/04/17 06:23:06;;;;;;;;;;;6.50;99.90;;;;;;5052575;28;19925;-72
2022/04/17 06:25:34;;;;;;;;;;;6.60;99.90;;;;;;5055873;28;19925;-72
2022/04/17 06:28:01;;;;;;;;;;;6.60;99.90;;;;;;5057653;28;20404;-73
2022/04/17 06:30:28;;;;;;;;;;;6.70;99.90;;;;;;5060918;28;19929;-73
2022/04/17 06:32:55;;;;;;;;;;;6.70;99.90;;;;;;5052686;28;19929;-73
2022/04/17 06:35:22;;;;;;;;;;;6.80;99.90;;;;;;5052696;28;19924;-73
2022/04/17 06:37:50;;;;;;;;;;;6.80;99.90;;;;;;5054121;28;20370;-78
2022/04/17 06:40:18;;;;;;;;;;;6.90;99.90;;;;;;5055188;28;19931;-74
2022/04/17 06:42:47;;;;;;;;;;;7.00;99.90;;;;;;5053363;28;20021;-74
2022/04/17 06:45:14;;;;;;;;;;;7.00;99.90;;;;;;5052706;28;20388;-73
2022/04/17 06:47:40;;;;;;;;;;;7.10;99.90;;;;;;5052476;28;20466;-73
2022/04/17 06:50:08;;;;;;;;;;;7.20;99.90;;;;;;5052720;28;19925;-74
2022/04/17 06:52:34;;;;;;;;;;;7.20;99.90;;;;;;5052139;28;19924;-74
2022/04/17 06:55:01;;;;;;;;;;;7.30;99.90;;;;;;5057105;28;19975;-74
2022/04/17 06:57:28;;;;;;;;;;;7.40;99.90;;;;;;5054840;28;19960;-74
2022/04/17 06:59:57;;;;;;;;;;;7.50;99.90;;;;;;5061210;28;19928;-72
2022/04/17 07:02:24;;;;;;;;;;;7.60;99.90;;;;;;5057613;28;19932;-72
2022/04/17 07:04:51;;;;;;;;;;;7.70;99.90;;;;;;5062808;28;19928;-72
2022/04/17 07:07:17;;;;;;;;;;;7.80;99.90;;;;;;5053828;28;19925;-72
2022/04/17 07:09:44;;;;;;;;;;;7.90;99.90;;;;;;5052322;28;20342;-73
2022/04/17 07:12:11;;;;;;;;;;;8.00;99.90;;;;;;5052032;28;19925;-73
2022/04/17 07:14:38;;;;;;;;;;;8.00;99.90;;;;;;5051837;28;20381;-72
2022/04/17 07:17:06;;;;;;;;;;;8.10;99.90;;;;;;5052201;28;19947;-73
2022/04/17 07:19:33;;;;;;;;;;;8.20;99.90;;;;;;5051516;28;19928;-72
2022/04/17 07:22:00;;;;;;;;;;;8.30;99.90;;;;;;5051801;28;19938;-73
2022/04/17 07:24:26;;;;;;;;;;;8.40;99.90;;;;;;5050564;28;20289;-75
2022/04/17 07:26:54;;;;;;;;;;;8.40;99.90;;;;;;5064636;28;19924;-73
2022/04/17 07:29:22;;;;;;;;;;;8.60;99.90;;;;;;5071606;28;19956;-73
2022/04/17 07:31:50;;;;;;;;;;;8.70;99.90;;;;;;5074742;28;19925;-83
2022/04/17 07:34:19;;;;;;;;;;;8.70;99.90;;;;;;5066268;28;19936;-72
2022/04/17 07:36:47;;;;;;;;;;;8.80;99.90;;;;;;5060319;28;20016;-74
2022/04/17 07:39:16;;;;;;;;;;;8.80;99.90;;;;;;5062338;28;19931;-75
2022/04/17 07:41:43;;;;;;;;;;;8.90;99.90;;;;;;5050811;28;19924;-71
2022/04/17 07:44:11;;;;;;;;;;;9.00;99.90;;;;;;5056057;28;19933;-71
2022/04/17 07:46:39;;;;;;;;;;;9.10;99.90;;;;;;5069249;28;20312;-70
2022/04/17 07:49:05;;;;;;;;;;;9.20;99.90;;;;;;5062116;28;19963;-71
2022/04/17 07:51:34;;;;;;;;;;;9.30;99.90;;;;;;5069811;28;19925;-71
2022/04/17 07:54:01;;;;;;;;;;;9.30;99.90;;;;;;5069018;28;20331;-71
2022/04/17 07:56:28;;;;;;;;;;;9.30;99.90;;;;;;5070175;28;19924;-71
2022/04/17 07:58:54;;;;;;;;;;;9.50;99.90;;;;;;5069500;28;19928;-70
2022/04/17 08:01:21;;;;;;;;;;;9.60;99.90;;;;;;5069903;28;19960;-72
2022/04/17 08:03:48;;;;;;;;;;;9.70;99.90;;;;;;5069741;28;19982;-72
2022/04/17 08:06:16;;;;;;;;;;;9.80;99.90;;;;;;5070077;28;19928;-72
2022/04/17 08:08:45;;;;;;;;;;;9.90;99.90;;;;;;5070598;28;19938;-71
2022/04/17 08:11:12;;;;;;;;;;;10.00;99.90;;;;;;5069973;28;19925;-71
2022/04/17 08:13:39;;;;;;;;;;;10.10;99.90;;;;;;5069639;28;19929;-72
2022/04/17 08:16:08;;;;;;;;;;;10.20;99.90;;;;;;5069854;28;20306;-72
2022/04/17 08:18:35;;;;;;;;;;;10.30;99.90;;;;;;5069883;28;19928;-72
2022/04/17 08:21:02;;;;;;;;;;;10.40;99.90;;;;;;5069757;28;19956;-72
2022/04/17 08:23:29;;;;;;;;;;;10.40;99.90;;;;;;5069681;28;20292;-71
2022/04/17 08:25:58;;;;;;;;;;;10.50;99.90;;;;;;5069699;28;20387;-71
2022/04/17 08:28:24;;;;;;;;;;;10.70;99.90;;;;;;5069645;28;19931;-72
2022/04/17 08:30:52;;;;;;;;;;;10.80;99.90;;;;;;5069601;28;19925;-72
2022/04/17 08:33:18;;;;;;;;;;;10.90;99.90;;;;;;5069518;28;19977;-72
2022/04/17 08:35:46;;;;;;;;;;;10.90;99.90;;;;;;5069597;28;19925;-72
2022/04/17 08:38:14;;;;;;;;;;;11.00;99.90;;;;;;5069804;28;19924;-71
2022/04/17 08:40:41;;;;;;;;;;;11.00;99.90;;;;;;5069820;28;19929;-71
2022/04/17 08:43:10;;;;;;;;;;;11.10;99.90;;;;;;5070027;28;19924;-72
2022/04/17 08:45:37;;;;;;;;;;;11.20;99.90;;;;;;5069982;28;19954;-69
2022/04/17 08:48:04;;;;;;;;;;;11.30;99.90;;;;;;5069928;28;19928;-72
2022/04/17 08:50:31;;;;;;;;;;;11.50;99.90;;;;;;5069716;28;19924;-72
2022/04/17 08:52:59;;;;;;;;;;;11.60;99.90;;;;;;5069468;28;20338;-72
2022/04/17 08:55:26;;;;;;;;;;;11.60;99.90;;;;;;5069496;28;19924;-72
2022/04/17 08:57:53;;;;;;;;;;;11.70;99.90;;;;;;5069537;28;19986;-72
2022/04/17 09:00:21;;;;;;;;;;;11.80;99.90;;;;;;5069619;28;20334;-71
2022/04/17 09:02:48;;;;;;;;;;;11.70;99.90;;;;;;5069451;28;19974;-70
2022/04/17 09:05:17;;;;;;;;;;;11.80;99.90;;;;;;5069308;28;19951;-72
2022/04/17 09:07:45;;;;;;;;;;;12.00;99.90;;;;;;5069688;28;19928;-72
2022/04/17 09:10:12;;;;;;;;;;;12.10;99.90;;;;;;5069467;28;19924;-72
2022/04/17 09:12:39;;;;;;;;;;;12.30;99.90;;;;;;5069358;28;20388;-71
2022/04/17 09:15:09;;;;;;;;;;;12.40;99.90;;;;;;5068910;28;19924;-72
2022/04/17 09:17:37;;;;;;;;;;;12.50;99.90;;;;;;5069475;28;20040;-72
2022/04/17 09:20:04;;;;;;;;;;;12.40;99.90;;;;;;5068929;28;19924;-72
2022/04/17 09:22:45;;;;;;;;;;;12.40;99.90;;;;;;5069398;28;19932;-71
2022/04/17 09:25:12;;;;;;;;;;;12.50;99.90;;;;;;5069074;28;19985;-72
2022/04/17 09:27:41;;;;;;;;;;;12.70;99.90;;;;;;5069489;28;19924;-72
2022/04/17 09:30:24;;;;;;;;;;;12.80;99.90;;;;;;5069084;28;19924;-72
2022/04/17 09:32:52;;;;;;;;;;;12.90;99.90;;;;;;5068892;28;19924;-72
2022/04/17 09:35:22;;;;;;;;;;;13.00;99.90;;;;;;5068937;28;19929;-72
2022/04/17 09:37:49;;;;;;;;;;;13.00;99.90;;;;;;5069160;28;20281;-72
2022/04/17 09:40:19;;;;;;;;;;;13.00;99.90;;;;;;5071848;28;19924;-72
2022/04/17 09:42:47;;;;;;;;;;;13.10;99.90;;;;;;5072687;28;20057;-71
2022/04/17 09:45:14;;;;;;;;;;;13.20;99.90;;;;;;5072112;28;20342;-72
2022/04/17 09:47:41;;;;;;;;;;;13.40;99.90;;;;;;5073025;28;19935;-72
2022/04/17 09:50:09;;;;;;;;;;;13.50;99.90;;;;;;5072383;28;19928;-72
2022/04/17 09:52:40;;;;;;;;;;;13.60;99.90;;;;;;5072734;28;19960;-71
2022/04/17 09:55:07;;;;;;;;;;;13.60;99.90;;;;;;5072197;28;19928;-71
2022/04/17 09:57:35;;;;;;;;;;;13.60;99.90;;;;;;5072330;28;20399;-70
2022/04/17 10:00:12;;;;;;;;;;;13.60;99.90;;;;;;5071936;28;20366;-72
2022/04/17 10:02:40;;;;;;;;;;;13.60;99.90;;;;;;5072592;28;19977;-71
2022/04/17 10:05:07;;;;;;;;;;;13.60;99.90;;;;;;5071930;28;19978;-72
2022/04/17 10:07:38;;;;;;;;;;;13.70;99.90;;;;;;5072263;28;20396;-72
2022/04/17 10:10:05;;;;;;;;;;;13.70;99.90;;;;;;5071828;28;19974;-72
2022/04/17 10:12:34;;;;;;;;;;;13.90;99.90;;;;;;5052826;28;19968;-72
2022/04/17 10:15:04;;;;;;;;;;;13.90;99.90;;;;;;5051658;28;20299;-71
2022/04/17 10:17:31;;;;;;;;;;;14.00;99.90;;;;;;5052047;28;19956;-72
2022/04/17 10:19:59;;;;;;;;;;;14.10;99.90;;;;;;5051762;28;20031;-72
2022/04/17 10:22:29;;;;;;;;;;;14.30;99.90;;;;;;5052048;28;19979;-71
2022/04/17 10:24:58;;;;;;;;;;;14.40;99.90;;;;;;5051185;28;20346;-71
2022/04/17 10:27:27;;;;;;;;;;;14.50;99.90;;;;;;5051988;28;19925;-71
2022/04/17 10:29:57;;;;;;;;;;;14.60;99.90;;;;;;5051219;28;20399;-71
2022/04/17 10:32:31;;;;;;;;;;;14.70;99.90;;;;;;5051661;28;19924;-71
2022/04/17 10:35:12;;;;;;;;;;;14.70;99.90;;;;;;5051291;28;19925;-71
2022/04/17 10:38:07;;;;;;;;;;;14.70;99.90;;;;;;5051625;28;19968;-70
2022/04/17 10:40:36;;;;;;;;;;;14.60;99.90;;;;;;5051612;28;20380;-71
2022/04/17 10:43:03;;;;;;;;;;;14.80;99.90;;;;;;5051429;28;19929;-71
2022/04/17 10:45:31;;;;;;;;;;;15.00;99.90;;;;;;5051103;28;19994;-71
2022/04/17 10:48:01;;;;;;;;;;;15.10;99.90;;;;;;5051775;28;20308;-71
2022/04/17 10:50:30;;;;;;;;;;;15.20;99.90;;;;;;5050669;28;19925;-71
2022/04/17 10:52:57;;;;;;;;;;;15.20;99.90;;;;;;5051209;28;19929;-71
2022/04/17 10:55:24;;;;;;;;;;;15.30;99.90;;;;;;5051053;28;20334;-72
2022/04/17 10:57:52;;;;;;;;;;;15.50;99.90;;;;;;5051490;28;19929;-71
2022/04/17 11:00:25;;;;;;;;;;;15.50;99.90;;;;;;5050602;28;19924;-72
2022/04/17 11:02:51;;;;;;;;;;;15.60;99.90;;;;;;5051086;28;19986;-71
2022/04/17 11:05:33;;;;;;;;;;;15.80;99.90;;;;;;5050849;28;20454;-71
2022/04/17 11:08:16;;;;;;;;;;;15.90;99.90;;;;;;5050975;28;19931;-71
2022/04/17 11:10:43;;;;;;;;;;;15.90;99.90;;;;;;5054861;28;19925;-70
2022/04/17 11:13:11;;;;;;;;;;;16.00;99.90;;;;;;5071022;28;19963;-71
2022/04/17 11:15:39;;;;;;;;;;;15.90;99.70;;;;;;5070603;28;20388;-71
2022/04/17 11:18:06;;;;;;;;;;;16.00;99.90;;;;;;5070888;28;19924;-71
2022/04/17 11:20:34;;;;;;;;;;;16.10;99.90;;;;;;5070790;28;19929;-72
2022/04/17 11:23:01;;;;;;;;;;;16.40;99.90;;;;;;5070382;28;19924;-70
2022/04/17 11:25:29;;;;;;;;;;;16.60;99.90;;;;;;5070402;28;19940;-71
2022/04/17 11:27:57;;;;;;;;;;;16.70;99.90;;;;;;5070508;28;19924;-69
2022/04/17 11:30:34;;;;;;;;;;;16.60;99.90;;;;;;5070512;28;19932;-71
2022/04/17 11:33:01;;;;;;;;;;;16.70;99.90;;;;;;5070513;28;19929;-72
2022/04/17 11:35:30;;;;;;;;;;;16.80;99.90;;;;;;5070327;28;19968;-71
2022/04/17 11:38:02;;;;;;;;;;;16.90;99.90;;;;;;5070801;28;19924;-71
2022/04/17 11:40:30;;;;;;;;;;;17.20;99.90;;;;;;5070314;28;19931;-71
2022/04/17 11:42:57;;;;;;;;;;;17.50;99.80;;;;;;5070467;28;19925;-71
2022/04/17 11:45:25;;;;;;;;;;;18.20;99.70;;;;;;5069978;28;19990;-72
2022/04/17 11:47:54;;;;;;;;;;;20.90;99.40;;;;;;5070506;28;20411;-72
2022/04/17 11:50:26;;;;;;;;;;;22.60;97.70;;;;;;5069958;28;19968;-72
2022/04/17 11:52:54;;;;;;;;;;;23.10;98.00;;;;;;5070363;28;19935;-72
2022/04/17 11:55:28;;;;;;;;;;;24.80;98.00;;;;;;5070109;28;20457;-72
2022/04/17 11:57:55;;;;;;;;;;;25.00;96.90;;;;;;5070486;28;20302;-72
2022/04/17 12:00:22;;;;;;;;;;;26.20;97.70;;;;;;5069977;28;19924;-72
2022/04/17 12:02:54;;;;;;;;;;;26.00;96.40;;;;;;5069302;28;20361;-71
2022/04/17 12:05:22;;;;;;;;;;;25.50;95.60;;;;;;5069972;28;19971;-70
2022/04/17 12:07:56;;;;;;;;;;;25.40;95.40;;;;;;5070413;28;19924;-71
2022/04/17 12:10:23;;;;;;;;;;;26.40;96.50;;;;;;5068653;28;19928;-72
2022/04/17 12:12:50;;;;;;;;;;;26.10;94.90;;;;;;5050017;28;19964;-72
2022/04/17 12:15:17;;;;;;;;;;;25.40;93.40;;;;;;5049411;28;19951;-72
2022/04/17 12:17:43;;;;;;;;;;;25.20;94.50;;;;;;5050159;28;20450;-72
2022/04/17 12:20:12;;;;;;;;;;;24.80;94.60;;;;;;5049841;28;19925;-71
2022/04/17 12:22:41;;;;;;;;;;;25.30;95.00;;;;;;5049833;28;19925;-70
2022/04/17 12:25:15;;;;;;;;;;;25.90;95.30;;;;;;5049341;28;19958;-72
2022/04/17 12:27:42;;;;;;;;;;;25.70;93.90;;;;;;5049728;28;19928;-72
2022/04/17 12:30:10;;;;;;;;;;;25.00;93.70;;;;;;5049380;28;19978;-72
2022/04/17 12:32:43;;;;;;;;;;;24.70;93.40;;;;;;5049806;28;20020;-73
2022/04/17 12:35:13;;;;;;;;;;;24.80;94.10;;;;;;5049252;28;20446;-71
2022/04/17 12:37:41;;;;;;;;;;;25.50;94.80;;;;;;5049937;28;19929;-72
2022/04/17 12:40:12;;;;;;;;;;;25.20;93.90;;;;;;5049253;28;19978;-73
2022/04/17 12:42:39;;;;;;;;;;;25.00;95.10;;;;;;5049842;28;19929;-72
2022/04/17 12:45:06;;;;;;;;;;;25.30;94.60;;;;;;5049257;28;19958;-70
2022/04/17 12:47:33;;;;;;;;;;;25.00;94.20;;;;;;5049843;28;19968;-72
2022/04/17 12:50:04;;;;;;;;;;;25.30;94.40;;;;;;5049352;28;19924;-72
2022/04/17 12:52:31;;;;;;;;;;;25.50;94.50;;;;;;5049315;28;20093;-72
2022/04/17 12:55:06;;;;;;;;;;;25.50;94.00;;;;;;5048307;28;20350;-72
2022/04/17 12:57:33;;;;;;;;;;;25.10;94.10;;;;;;5058044;28;19925;-72
2022/04/17 12:59:59;;;;;;;;;;;25.20;93.60;;;;;;5049207;28;19979;-72
2022/04/17 13:02:26;;;;;;;;;;;25.00;94.00;;;;;;5049225;28;19925;-70
2022/04/17 13:04:54;;;;;;;;;;;25.00;94.10;;;;;;5048881;28;19971;-70
2022/04/17 13:07:21;;;;;;;;;;;24.80;94.40;;;;;;5049568;28;19925;-72
2022/04/17 13:09:52;;;;;;;;;;;24.40;94.40;;;;;;5049227;28;19991;-71
2022/04/17 13:12:36;;;;;;;;;;;24.40;94.60;;;;;;5049257;28;19996;-72
2022/04/17 13:15:05;;;;;;;;;;;24.40;94.40;;;;;;5052800;28;20335;-73
2022/04/17 13:17:31;;;;;;;;;;;24.60;95.50;;;;;;5053053;28;19925;-72
2022/04/17 13:19:58;;;;;;;;;;;24.60;94.70;;;;;;5052807;28;19932;-72
2022/04/17 13:22:25;;;;;;;;;;;24.60;94.60;;;;;;5053078;28;19955;-73
2022/04/17 13:24:52;;;;;;;;;;;24.50;94.50;;;;;;5052682;28;19975;-72
2022/04/17 13:27:18;;;;;;;;;;;24.50;94.50;;;;;;5052773;28;20453;-71
2022/04/17 13:29:47;;;;;;;;;;;24.90;95.40;;;;;;5052420;28;19925;-73
2022/04/17 13:32:13;;;;;;;;;;;24.60;95.10;;;;;;5052845;28;19928;-72
2022/04/17 13:34:42;;;;;;;;;;;25.20;94.70;;;;;;5052534;28;19933;-73
2022/04/17 13:39:53;;;;;;;;;;;26.20;95.50;;;;;;5052483;28;20303;-70
2022/04/17 13:42:20;;;;;;;;;;;26.70;94.60;;;;;;5052790;28;19929;-70
2022/04/17 13:44:48;;;;;;;;;;;26.30;94.80;;;;;;5052055;28;20320;-70
2022/04/17 13:47:15;;;;;;;;;;;25.70;93.80;;;;;;5052731;28;20354;-69
2022/04/17 13:49:44;;;;;;;;;;;25.50;94.70;;;;;;5052390;28;20359;-70
2022/04/17 13:52:11;;;;;;;;;;;25.10;94.40;;;;;;5052540;28;20364;-72
2022/04/17 13:54:37;;;;;;;;;;;24.70;93.90;;;;;;5051907;28;20018;-72
2022/04/17 13:57:04;;;;;;;;;;;25.40;94.40;;;;;;5052589;28;20446;-72
2022/04/17 13:59:31;;;;;;;;;;;26.10;94.80;;;;;;5052125;28;19978;-69
2022/04/17 14:01:59;;;;;;;;;;;25.70;93.90;;;;;;5052340;28;20035;-72
2022/04/17 14:04:26;;;;;;;;;;;25.10;93.50;;;;;;5051723;28;19978;-71
2022/04/17 14:06:53;;;;;;;;;;;25.10;94.60;;;;;;5052281;28;19929;-70
2022/04/17 14:09:20;;;;;;;;;;;25.40;94.20;;;;;;5051749;28;19932;-70
2022/04/17 14:11:47;;;;;;;;;;;25.20;94.20;;;;;;5065009;28;19978;-70
2022/04/17 14:14:13;;;;;;;;;;;25.70;95.00;;;;;;5071609;28;19925;-71
2022/04/17 14:16:40;;;;;;;;;;;25.80;94.30;;;;;;5072141;28;19924;-71
2022/04/17 14:19:08;;;;;;;;;;;26.20;94.30;;;;;;5071930;28;19987;-71
2022/04/17 14:21:35;;;;;;;;;;;26.40;93.80;;;;;;5071896;28;19989;-72
2022/04/17 14:24:02;;;;;;;;;;;26.40;93.60;;;;;;5071206;28;19928;-71
2022/04/17 14:26:29;;;;;;;;;;;26.90;93.50;;;;;;5071722;28;19924;-70
2022/04/17 14:28:55;;;;;;;;;;;26.00;92.80;;;;;;5071686;28;19932;-70
2022/04/17 14:31:22;;;;;;;;;;;25.80;93.10;;;;;;5071815;28;19924;-71
2022/04/17 14:33:50;;;;;;;;;;;25.90;93.90;;;;;;5071359;28;19928;-69
2022/04/17 14:36:18;;;;;;;;;;;25.50;93.10;;;;;;5071582;28;19925;-70
2022/04/17 14:38:45;;;;;;;;;;;25.20;92.90;;;;;;5071807;28;20019;-70
2022/04/17 14:41:13;;;;;;;;;;;25.60;92.90;;;;;;5071361;28;20396;-69